Time;durP1;ratioP1;P1;durP2;ratioP2;P2;SDS_P1;SDS_P2;PMS_P1;PMS_P2;Temp;Humidity;BMP_temperature;BMP_pressure;BME280_temperature;BME280_humidity;BME280_pressure;Samples;Min_cycle;Max_cycle;Signal;HPM_P1;HPM_P2
2021/12/13 00:00:16;;;;;;;0.30;0.30;;;;;;;-143.85;100.00;70650.75;5094505;28;20027;-78
2021/12/13 00:03:23;;;;;;;0.20;0.20;;;;;;;-143.85;100.00;70650.75;5094967;28;20070;-79
2021/12/13 00:06:11;;;;;;;0.30;0.30;;;;;;;-143.85;100.00;70650.75;5065395;28;20118;-78
2021/12/13 00:08:41;;;;;;;0.20;0.20;;;;;;;-143.85;100.00;70650.75;5094511;28;20035;-78
2021/12/13 00:11:17;;;;;;;0.30;0.30;;;;;;;-143.85;100.00;70650.75;5094733;28;20035;-79
2021/12/13 00:13:57;;;;;;;0.63;0.63;;;;;;;-143.85;100.00;70650.75;5094332;28;20027;-77
2021/12/13 00:16:29;;;;;;;0.32;0.32;;;;;;;-143.85;100.00;70650.75;5094392;28;20051;-77
2021/12/13 00:18:59;;;;;;;0.20;0.20;;;;;;;-143.85;100.00;70650.75;5094157;28;20023;-79
2021/12/13 00:21:33;;;;;;;0.52;0.52;;;;;;;-143.85;100.00;70650.75;5094859;28;20019;-79
2021/12/13 00:24:05;;;;;;;0.65;0.65;;;;;;;-143.85;100.00;70650.75;5094262;28;20023;-79
2021/12/13 00:26:44;;;;;;;0.20;0.20;;;;;;;-143.85;100.00;70650.75;5094647;28;20033;-79
2021/12/13 00:29:20;;;;;;;0.30;0.30;;;;;;;-143.85;100.00;70650.75;5094827;28;20023;-79
2021/12/13 00:31:59;;;;;;;0.47;0.47;;;;;;;-143.85;100.00;70650.75;5097541;28;20092;-79
2021/12/13 00:34:40;;;;;;;0.20;0.20;;;;;;;-143.85;100.00;70650.75;5098153;28;20114;-78
2021/12/13 00:37:14;;;;;;;0.20;0.20;;;;;;;-143.85;100.00;70650.75;5098088;28;20024;-79
2021/12/13 00:40:09;;;;;;;0.30;0.30;;;;;;;-143.85;100.00;70650.75;5097767;28;20031;-79
2021/12/13 00:42:40;;;;;;;0.20;0.20;;;;;;;-143.85;100.00;70650.75;5061991;28;20075;-78
2021/12/13 00:45:09;;;;;;;0.20;0.20;;;;;;;-143.85;100.00;70650.75;5098177;28;20475;-77
2021/12/13 00:47:37;;;;;;;0.20;0.20;;;;;;;-143.85;100.00;70650.75;5098373;28;20480;-78
2021/12/13 00:50:26;;;;;;;0.20;0.20;;;;;;;-143.85;100.00;70650.75;5097787;28;20107;-78
2021/12/13 00:52:53;;;;;;;0.22;0.22;;;;;;;-143.85;100.00;70650.75;5079745;28;20031;-78
2021/12/13 00:55:26;;;;;;;0.15;0.15;;;;;;;-143.85;100.00;70650.75;5115944;28;20027;-78
2021/12/13 00:58:07;;;;;;;0.30;0.30;;;;;;;-143.85;100.00;70650.75;5098490;28;20500;-78
2021/12/13 01:01:04;;;;;;;0.20;0.20;;;;;;;-143.85;100.00;70650.75;5097877;28;20471;-76
2021/12/13 01:03:42;;;;;;;0.20;0.20;;;;;;;-143.85;100.00;70650.75;5097151;28;20508;-77
2021/12/13 01:06:44;;;;;;;0.40;0.40;;;;;;;-143.85;100.00;70650.75;5097420;28;20035;-78
2021/12/13 01:09:47;;;;;;;0.20;0.20;;;;;;;-143.85;100.00;70650.75;5115996;28;20042;-77
2021/12/13 01:12:18;;;;;;;0.47;0.47;;;;;;;-143.85;100.00;70650.75;5097270;28;20491;-78
2021/12/13 01:15:10;;;;;;;0.20;0.20;;;;;;;-143.85;100.00;70650.75;5115385;28;20114;-77
2021/12/13 01:21:14;;;;;;;0.20;0.20;;;;;;;-143.85;100.00;70650.75;5063700;28;20035;-78
2021/12/13 01:23:46;;;;;;;0.40;0.40;;;;;;;-143.85;100.00;70650.75;5112700;28;20136;-79
2021/12/13 01:26:35;;;;;;;0.32;0.32;;;;;;;-143.85;100.00;70650.75;5097632;28;20050;-78
2021/12/13 01:29:07;;;;;;;0.45;0.43;;;;;;;-143.85;100.00;70650.75;5096893;28;20019;-77
2021/12/13 01:31:38;;;;;;;0.40;0.40;;;;;;;-143.85;100.00;70650.75;5115527;28;20028;-77
2021/12/13 01:34:05;;;;;;;0.20;0.20;;;;;;;-143.85;100.00;70650.75;5096894;28;20612;-78
2021/12/13 01:36:42;;;;;;;0.20;0.20;;;;;;;-143.85;100.00;70650.75;5096859;28;20472;-77
2021/12/13 01:39:23;;;;;;;0.40;0.40;;;;;;;-143.85;100.00;70650.75;5096918;28;20112;-77
2021/12/13 01:41:58;;;;;;;0.50;0.50;;;;;;;-143.85;100.00;70650.75;5096374;28;20056;-77
2021/12/13 01:44:29;;;;;;;0.20;0.20;;;;;;;-143.85;100.00;70650.75;5097310;28;20107;-78
2021/12/13 01:47:10;;;;;;;0.20;0.20;;;;;;;-143.85;100.00;70650.75;5096033;28;20038;-78
2021/12/13 01:49:41;;;;;;;0.20;0.20;;;;;;;-143.85;100.00;70650.75;5096946;28;20028;-78
2021/12/13 01:52:29;;;;;;;0.25;0.25;;;;;;;-143.85;100.00;70650.75;5096743;28;20031;-80
2021/12/13 01:54:57;;;;;;;;;;;;;;;-143.85;100.00;70650.75;5096927;28;20053;-78
2021/12/13 01:57:37;;;;;;;0.20;0.20;;;;;;;-143.85;100.00;70650.75;5096475;28;19911;-78
2021/12/13 02:00:18;;;;;;;0.20;0.20;;;;;;;-143.85;100.00;70650.75;5096455;28;20034;-78
2021/12/13 02:02:50;;;;;;;0.20;0.20;;;;;;;-143.85;100.00;70650.75;5097156;28;20114;-78
2021/12/13 02:05:21;;;;;;;0.20;0.20;;;;;;;-143.85;100.00;70650.75;5096356;28;20031;-78
2021/12/13 02:08:01;;;;;;;0.20;0.20;;;;;;;-143.85;100.00;70650.75;5096432;28;20019;-78
2021/12/13 02:10:30;;;;;;;0.20;0.20;;;;;;;-143.85;100.00;70650.75;5096883;28;20105;-78
2021/12/13 02:13:01;;;;;;;3.70;0.77;;;;;;;-143.85;100.00;70650.75;5096026;28;20380;-78
2021/12/13 02:18:21;;;;;;;0.20;0.20;;;;;;;-143.85;100.00;70650.75;5114367;28;20030;-78
2021/12/13 02:21:02;;;;;;;0.20;0.20;;;;;;;-143.85;100.00;70650.75;5095914;28;20031;-77
2021/12/13 02:23:28;;;;;;;0.20;0.20;;;;;;;-143.85;100.00;70650.75;5096576;28;20042;-78
2021/12/13 02:25:55;;;;;;;0.30;0.30;;;;;;;-143.85;100.00;70650.75;5095886;28;20028;-77
2021/12/13 02:28:25;;;;;;;0.17;0.17;;;;;;;-143.85;100.00;70650.75;5095929;28;20028;-77
2021/12/13 02:30:54;;;;;;;0.30;0.30;;;;;;;-143.85;100.00;70650.75;5096052;28;20035;-77
2021/12/13 02:33:49;;;;;;;0.20;0.20;;;;;;;-143.85;100.00;70650.75;5095630;28;20059;-79
2021/12/13 02:36:29;;;;;;;0.20;0.20;;;;;;;-143.85;100.00;70650.75;5096245;28;20023;-78
2021/12/13 02:38:57;;;;;;;0.20;0.20;;;;;;;-143.85;100.00;70650.75;5096562;28;20023;-79
2021/12/13 02:41:26;;;;;;;0.20;0.20;;;;;;;-143.85;100.00;70650.75;5095437;28;20060;-78
2021/12/13 02:44:00;;;;;;;0.20;0.20;;;;;;;-143.85;100.00;70650.75;5095897;28;20030;-78
2021/12/13 02:46:26;;;;;;;0.20;0.20;;;;;;;-143.85;100.00;70650.75;5095504;28;20020;-78
2021/12/13 02:48:55;;;;;;;0.20;0.20;;;;;;;-143.85;100.00;70650.75;5095553;28;20028;-78
2021/12/13 02:51:34;;;;;;;0.20;0.20;;;;;;;-143.85;100.00;70650.75;5095386;28;20027;-78
2021/12/13 02:54:18;;;;;;;0.30;0.30;;;;;;;-143.85;100.00;70650.75;5113441;28;20028;-78
2021/12/13 02:56:57;;;;;;;0.17;0.17;;;;;;;-143.85;100.00;70650.75;5113770;28;20403;-78
2021/12/13 02:59:25;;;;;;;0.20;0.20;;;;;;;-143.85;100.00;70650.75;5095295;28;20031;-78
2021/12/13 03:01:52;;;;;;;0.20;0.20;;;;;;;-143.85;100.00;70650.75;5113523;28;20503;-78
2021/12/13 03:04:23;;;;;;;0.20;0.20;;;;;;;-143.85;100.00;70650.75;5094831;28;20027;-79
2021/12/13 03:07:13;;;;;;;0.30;0.30;;;;;;;-143.85;100.00;70650.75;5095117;28;20181;-79
2021/12/13 03:09:42;;;;;;;0.20;0.20;;;;;;;-143.85;100.00;70650.75;5095925;28;20034;-79
2021/12/13 03:12:11;;;;;;;0.30;0.30;;;;;;;-143.85;100.00;70650.75;5094916;28;20118;-78
2021/12/13 03:14:41;;;;;;;0.30;0.30;;;;;;;-143.85;100.00;70650.75;5095066;28;20027;-78
2021/12/13 03:17:20;;;;;;;0.30;0.30;;;;;;;-143.85;100.00;70650.75;5095005;28;20072;-78
2021/12/13 03:20:15;;;;;;;0.38;0.38;;;;;;;-143.85;100.00;70650.75;5095239;28;20479;-77
2021/12/13 03:23:17;;;;;;;1.48;1.02;;;;;;;-143.85;100.00;70650.75;5095101;28;20067;-77
2021/12/13 03:26:00;;;;;;;0.20;0.20;;;;;;;-143.85;100.00;70650.75;5094931;28;20079;-77
2021/12/13 03:29:07;;;;;;;0.28;0.28;;;;;;;-143.85;100.00;70650.75;5095436;28;20411;-78
2021/12/13 03:31:47;;;;;;;0.20;0.20;;;;;;;-143.85;100.00;70650.75;5011175;28;20026;-77
2021/12/13 03:34:22;;;;;;;0.20;0.20;;;;;;;-143.85;100.00;70650.75;4994068;28;20120;-77
2021/12/13 03:37:04;;;;;;;0.20;0.20;;;;;;;-143.85;100.00;70650.75;5058881;28;20047;-78
2021/12/13 03:39:39;;;;;;;0.20;0.20;;;;;;;-143.85;100.00;70650.75;5095524;28;20467;-77
2021/12/13 03:42:09;;;;;;;0.63;0.63;;;;;;;-143.85;100.00;70650.75;5094424;28;20514;-77
2021/12/13 03:44:46;;;;;;;0.20;0.20;;;;;;;-143.85;100.00;70650.75;5094368;28;20096;-79
2021/12/13 03:47:19;;;;;;;0.20;0.20;;;;;;;-143.85;100.00;70650.75;5095527;28;20535;-77
2021/12/13 03:49:49;;;;;;;0.20;0.20;;;;;;;-143.85;100.00;70650.75;5094951;28;20024;-78
2021/12/13 03:52:17;;;;;;;0.30;0.30;;;;;;;-143.85;100.00;70650.75;5094453;28;20032;-77
2021/12/13 03:54:44;;;;;;;0.20;0.20;;;;;;;-143.85;100.00;70650.75;5095343;28;20472;-79
2021/12/13 03:57:11;;;;;;;0.22;0.22;;;;;;;-143.85;100.00;70650.75;5094629;28;20035;-79
2021/12/13 03:59:44;;;;;;;0.55;0.55;;;;;;;-143.85;100.00;70650.75;5094514;28;20028;-77
2021/12/13 04:02:17;;;;;;;0.63;0.63;;;;;;;-143.85;100.00;70650.75;5094780;28;20108;-77
2021/12/13 04:04:48;;;;;;;0.20;0.20;;;;;;;-143.85;100.00;70650.75;5114124;28;20024;-78
2021/12/13 04:07:29;;;;;;;0.30;0.30;;;;;;;-143.85;100.00;70650.75;5099044;28;20031;-77
2021/12/13 04:09:57;;;;;;;0.20;0.20;;;;;;;-143.85;100.00;70650.75;5099170;28;20112;-77
2021/12/13 04:12:32;;;;;;;0.35;0.35;;;;;;;-143.85;100.00;70650.75;5098040;28;20027;-76
2021/12/13 04:15:02;;;;;;;0.20;0.20;;;;;;;-143.85;100.00;70650.75;5117002;28;20031;-77
2021/12/13 04:17:57;;;;;;;0.30;0.30;;;;;;;-143.85;100.00;70650.75;5098375;28;20114;-78
2021/12/13 04:20:30;;;;;;;0.20;0.20;;;;;;;-143.85;100.00;70650.75;5098963;28;20030;-77
2021/12/13 04:23:05;;;;;;;0.40;0.40;;;;;;;-143.85;100.00;70650.75;5099091;28;20153;-77
2021/12/13 04:25:35;;;;;;;1.33;0.95;;;;;;;-143.85;100.00;70650.75;5098255;28;20161;-78
2021/12/13 04:28:09;;;;;;;0.20;0.20;;;;;;;-143.85;100.00;70650.75;5098185;28;20039;-78
2021/12/13 04:30:49;;;;;;;0.20;0.20;;;;;;;-143.85;100.00;70650.75;5098781;28;20028;-76
2021/12/13 04:33:30;;;;;;;0.40;0.40;;;;;;;-143.85;100.00;70650.75;5098650;28;20522;-78
2021/12/13 04:36:03;;;;;;;0.25;0.25;;;;;;;-143.85;100.00;70650.75;5098886;28;20437;-79
2021/12/13 04:38:48;;;;;;;0.20;0.20;;;;;;;-143.85;100.00;70650.75;5098371;28;20054;-77
2021/12/13 04:41:26;;;;;;;0.25;0.25;;;;;;;-143.85;100.00;70650.75;5097639;28;20076;-77
2021/12/13 04:44:02;;;;;;;0.20;0.20;;;;;;;-143.85;100.00;70650.75;5097941;28;20172;-77
2021/12/13 04:46:30;;;;;;;0.47;0.47;;;;;;;-143.85;100.00;70650.75;5097851;28;20035;-77
2021/12/13 04:48:59;;;;;;;0.35;0.35;;;;;;;-143.85;100.00;70650.75;5097836;28;20026;-77
2021/12/13 04:51:35;;;;;;;0.20;0.20;;;;;;;-143.85;100.00;70650.75;5097758;28;20028;-77
2021/12/13 04:54:01;;;;;;;0.25;0.25;;;;;;;-143.85;100.00;70650.75;5098306;28;20028;-81
2021/12/13 04:56:28;;;;;;;0.20;0.20;;;;;;;-143.85;100.00;70650.75;5097995;28;20084;-77
2021/12/13 04:58:57;;;;;;;1.77;1.33;;;;;;;-143.85;100.00;70650.75;5097625;28;20023;-80
2021/12/13 05:01:24;;;;;;;0.20;0.20;;;;;;;-143.85;100.00;70650.75;5097495;28;20395;-77
2021/12/13 05:04:03;;;;;;;0.30;0.30;;;;;;;-143.85;100.00;70650.75;5097607;28;20023;-80
2021/12/13 05:06:34;;;;;;;0.20;0.20;;;;;;;-143.85;100.00;70650.75;5098445;28;20047;-78
2021/12/13 05:09:03;;;;;;;0.20;0.20;;;;;;;-143.85;100.00;70650.75;5115691;28;20019;-78
2021/12/13 05:11:31;;;;;;;0.20;0.20;;;;;;;-143.85;100.00;70650.75;5097656;28;20028;-78
2021/12/13 05:13:58;;;;;;;0.20;0.20;;;;;;;-143.85;100.00;70650.75;5097298;28;20038;-78
2021/12/13 05:16:38;;;;;;;0.20;0.20;;;;;;;-143.85;100.00;70650.75;5096479;28;20057;-79
2021/12/13 05:19:05;;;;;;;0.20;0.20;;;;;;;-143.85;100.00;70650.75;5097793;28;20024;-78
2021/12/13 05:21:39;;;;;;;0.27;0.27;;;;;;;-143.85;100.00;70650.75;5097215;28;20020;-77
2021/12/13 05:24:13;;;;;;;0.30;0.30;;;;;;;-143.85;100.00;70650.75;5097214;28;20253;-80
2021/12/13 05:26:59;;;;;;;1.63;1.52;;;;;;;-143.85;100.00;70650.75;5096804;28;20024;-79
2021/12/13 05:29:34;;;;;;;0.40;0.40;;;;;;;-143.85;100.00;70650.75;5097123;28;20050;-79
2021/12/13 05:32:34;;;;;;;0.32;0.32;;;;;;;-143.85;100.00;70650.75;5097047;28;20032;-77
2021/12/13 05:35:08;;;;;;;0.20;0.20;;;;;;;-143.85;100.00;70650.75;5096875;28;20027;-78
2021/12/13 05:37:43;;;;;;;0.20;0.20;;;;;;;-143.85;100.00;70650.75;5115191;28;20106;-78
2021/12/13 05:40:13;;;;;;;0.40;0.40;;;;;;;-143.85;100.00;70650.75;5115682;28;20031;-78
2021/12/13 05:42:49;;;;;;;0.20;0.20;;;;;;;-143.85;100.00;70650.75;5096820;28;20102;-78
2021/12/13 05:45:19;;;;;;;0.85;0.57;;;;;;;-143.85;100.00;70650.75;5097264;28;20486;-79
2021/12/13 05:48:04;;;;;;;0.25;0.25;;;;;;;-143.85;100.00;70650.75;5097010;28;20376;-78
2021/12/13 05:50:37;;;;;;;0.60;0.60;;;;;;;-143.85;100.00;70650.75;5096923;28;20579;-78
2021/12/13 05:53:29;;;;;;;0.20;0.20;;;;;;;-143.85;100.00;70650.75;5096821;28;20019;-77
2021/12/13 05:56:07;;;;;;;0.15;0.15;;;;;;;-143.85;100.00;70650.75;5085160;28;20038;-79
2021/12/13 05:58:39;;;;;;;0.30;0.30;;;;;;;-143.85;100.00;70650.75;5097059;28;20027;-80
2021/12/13 06:01:13;;;;;;;0.20;0.20;;;;;;;-143.85;100.00;70650.75;5096785;28;20066;-79
2021/12/13 06:03:44;;;;;;;0.75;0.75;;;;;;;-143.85;100.00;70650.75;5096542;28;20031;-77
2021/12/13 06:06:14;;;;;;;0.25;0.25;;;;;;;-143.85;100.00;70650.75;5096894;28;20035;-78
2021/12/13 06:08:46;;;;;;;0.30;0.30;;;;;;;-143.85;100.00;70650.75;5096015;28;20027;-79
2021/12/13 06:11:19;;;;;;;0.47;0.47;;;;;;;-143.85;100.00;70650.75;5096279;28;20030;-79
2021/12/13 06:13:48;;;;;;;1.33;1.33;;;;;;;-143.85;100.00;70650.75;5096930;28;20020;-78
2021/12/13 06:16:31;;;;;;;0.28;0.28;;;;;;;-143.85;100.00;70650.75;5096985;28;20399;-83
2021/12/13 06:19:21;;;;;;;0.85;0.85;;;;;;;-143.85;100.00;70650.75;5095696;28;20024;-80
2021/12/13 06:21:55;;;;;;;1.15;1.00;;;;;;;-143.85;100.00;70650.75;5095891;28;20028;-82
2021/12/13 06:25:07;;;;;;;0.50;0.50;;;;;;;-143.85;100.00;70650.75;5096148;28;20084;-82
2021/12/13 06:27:46;;;;;;;1.75;0.85;;;;;;;-143.85;100.00;70650.75;5096960;28;20077;-78
2021/12/13 06:30:21;;;;;;;0.32;0.32;;;;;;;-143.85;100.00;70650.75;5095656;28;20031;-81
2021/12/13 06:32:58;;;;;;;1.35;1.25;;;;;;;-143.85;100.00;70650.75;5095909;28;20028;-80
2021/12/13 06:35:30;;;;;;;0.20;0.20;;;;;;;-143.85;100.00;70650.75;5096261;28;20024;-81
2021/12/13 06:38:01;;;;;;;0.20;0.20;;;;;;;-143.85;100.00;70650.75;5095914;28;20471;-81
2021/12/13 06:40:29;;;;;;;0.50;0.50;;;;;;;-143.85;100.00;70650.75;5095898;28;20036;-82
2021/12/13 06:42:59;;;;;;;;;;;;;;;-143.85;100.00;70650.75;5096048;28;20055;-82
2021/12/13 06:45:34;;;;;;;0.57;0.57;;;;;;;-143.85;100.00;70650.75;5095929;28;19922;-82
2021/12/13 06:48:05;;;;;;;0.38;0.38;;;;;;;-143.85;100.00;70650.75;5095826;28;20027;-82
2021/12/13 06:50:36;;;;;;;0.50;0.50;;;;;;;-143.85;100.00;70650.75;5096387;28;20049;-83
2021/12/13 06:53:14;;;;;;;0.20;0.20;;;;;;;-143.85;100.00;70650.75;5095848;28;20023;-80
2021/12/13 06:55:40;;;;;;;0.20;0.20;;;;;;;-143.85;100.00;70650.75;5114074;28;20030;-78
2021/12/13 06:58:23;;;;;;;0.98;0.98;;;;;;;-143.85;100.00;70650.75;5095515;28;20068;-81
2021/12/13 07:00:53;;;;;;;4.53;4.22;;;;;;;-143.85;100.00;70650.75;5095474;28;20027;-79
2021/12/13 07:03:26;;;;;;;2.75;2.65;;;;;;;-143.85;100.00;70650.75;5095703;28;20027;-83
2021/12/13 07:05:55;;;;;;;2.92;2.72;;;;;;;-143.85;100.00;70650.75;5096183;28;20497;-81
2021/12/13 07:08:31;;;;;;;4.13;3.83;;;;;;;-143.85;100.00;70650.75;5095356;28;20122;-83
2021/12/13 07:11:12;;;;;;;3.08;2.88;;;;;;;-143.85;100.00;70650.75;5095345;28;20065;-83
2021/12/13 07:13:58;;;;;;;2.03;1.92;;;;;;;-143.85;100.00;70650.75;5095449;28;20056;-79
2021/12/13 07:16:30;;;;;;;0.82;0.82;;;;;;;-143.85;100.00;70650.75;5095363;28;20115;-77
2021/12/13 07:19:20;;;;;;;1.38;1.38;;;;;;;-143.85;100.00;70650.75;5094971;28;20015;-78
2021/12/13 07:21:57;;;;;;;0.20;0.20;;;;;;;-143.85;100.00;70650.75;5094922;28;20024;-77
2021/12/13 07:24:42;;;;;;;0.25;0.25;;;;;;;-143.85;100.00;70650.75;5112982;28;20072;-78
2021/12/13 07:27:15;;;;;;;0.20;0.20;;;;;;;-143.85;100.00;70650.75;5113374;28;20032;-80
2021/12/13 07:29:43;;;;;;;0.17;0.17;;;;;;;-143.85;100.00;70650.75;5113891;28;20047;-78
2021/12/13 07:32:27;;;;;;;0.35;0.35;;;;;;;-143.85;100.00;70650.75;5094824;28;20031;-78
2021/12/13 07:34:55;;;;;;;0.55;0.55;;;;;;;-143.85;100.00;70650.75;5095461;28;20384;-80
2021/12/13 07:37:41;;;;;;;;;;;;;;;-143.85;100.00;70650.75;5095199;28;20028;-78
2021/12/13 07:40:30;;;;;;;0.20;0.20;;;;;;;-143.85;100.00;70650.75;5094903;28;19919;-79
2021/12/13 07:43:01;;;;;;;0.30;0.30;;;;;;;-143.85;100.00;70650.75;5112965;28;20596;-77
2021/12/13 07:46:00;;;;;;;4.18;1.27;;;;;;;-143.85;100.00;70650.75;5094879;28;20551;-77
2021/12/13 07:48:34;;;;;;;0.65;0.65;;;;;;;-143.85;100.00;70650.75;5094442;28;20031;-77
2021/12/13 07:51:19;;;;;;;3.83;0.77;;;;;;;-143.85;100.00;70650.75;5094553;28;20028;-78
2021/12/13 07:54:11;;;;;;;0.95;0.95;;;;;;;-143.85;100.00;70650.75;5094454;28;20028;-77
2021/12/13 07:56:53;;;;;;;0.77;0.77;;;;;;;-143.85;100.00;70650.75;5095197;28;20028;-76
2021/12/13 07:59:21;;;;;;;0.75;0.75;;;;;;;-143.85;100.00;70650.75;5094907;28;20040;-77
2021/12/13 08:02:17;;;;;;;0.30;0.30;;;;;;;-143.85;100.00;70650.75;5094527;28;20027;-78
2021/12/13 08:05:00;;;;;;;0.80;0.80;;;;;;;-143.85;100.00;70650.75;5094566;28;20039;-77
2021/12/13 08:07:29;;;;;;;0.43;0.43;;;;;;;-143.85;100.00;70650.75;5094987;28;20062;-77
2021/12/13 08:10:00;;;;;;;0.20;0.20;;;;;;;-143.85;100.00;70650.75;5094658;28;20039;-77
2021/12/13 08:12:31;;;;;;;0.55;0.55;;;;;;;-143.85;100.00;70650.75;5094910;28;20034;-77
2021/12/13 08:15:17;;;;;;;3.53;1.65;;;;;;;-143.85;100.00;70650.75;5094230;28;20034;-77
2021/12/13 08:17:49;;;;;;;0.95;0.95;;;;;;;-143.85;100.00;70650.75;5094600;28;20115;-77
2021/12/13 08:20:23;;;;;;;0.28;0.28;;;;;;;-143.85;100.00;70650.75;5094271;28;20039;-78
2021/12/13 08:22:50;;;;;;;0.20;0.20;;;;;;;-143.85;100.00;70650.75;5094217;28;20019;-78
2021/12/13 08:25:29;;;;;;;0.20;0.20;;;;;;;-143.85;100.00;70650.75;5112348;28;20096;-78
2021/12/13 08:27:59;;;;;;;0.20;0.20;;;;;;;-143.85;100.00;70650.75;5112479;28;20084;-78
2021/12/13 08:30:48;;;;;;;0.88;0.88;;;;;;;-143.85;100.00;70650.75;5093992;28;20031;-77
2021/12/13 08:33:21;;;;;;;1.25;1.25;;;;;;;-143.85;100.00;70650.75;5083547;28;20032;-77
2021/12/13 08:36:04;;;;;;;0.88;0.88;;;;;;;-143.85;100.00;70650.75;5094293;28;20024;-77
2021/12/13 08:38:29;;;;;;;0.25;0.25;;;;;;;-143.85;100.00;70650.75;5093928;28;20077;-77
2021/12/13 08:40:58;;;;;;;0.20;0.20;;;;;;;-143.85;100.00;70650.75;5112352;28;20019;-78
2021/12/13 08:43:54;;;;;;;0.75;0.75;;;;;;;-143.85;100.00;70650.75;5093642;28;20103;-77
2021/12/13 08:46:46;;;;;;;0.20;0.20;;;;;;;-143.85;100.00;70650.75;5065597;28;20028;-77
2021/12/13 08:49:19;;;;;;;0.10;0.10;;;;;;;-143.85;100.00;70650.75;5094255;28;20081;-78
2021/12/13 08:52:06;;;;;;;0.30;0.30;;;;;;;-143.85;100.00;70650.75;5095847;28;20360;-77
2021/12/13 08:55:04;;;;;;;0.80;0.70;;;;;;;-143.85;100.00;70650.75;5097715;28;20036;-77
2021/12/13 08:57:45;;;;;;;0.68;0.68;;;;;;;-143.85;100.00;70650.75;5090132;28;20085;-78
2021/12/13 09:00:13;;;;;;;0.38;0.38;;;;;;;-143.85;100.00;70650.75;5098371;28;20057;-77
2021/12/13 09:02:50;;;;;;;0.30;0.30;;;;;;;-143.85;100.00;70650.75;5098388;28;20047;-80
2021/12/13 09:05:30;;;;;;;0.52;0.52;;;;;;;-143.85;100.00;70650.75;5097636;28;20080;-81
2021/12/13 09:08:14;;;;;;;0.57;0.57;;;;;;;-143.85;100.00;70650.75;5097901;28;20019;-80
2021/12/13 09:10:48;;;;;;;0.30;0.30;;;;;;;-143.85;100.00;70650.75;5098037;28;20072;-78
2021/12/13 09:13:17;;;;;;;0.30;0.30;;;;;;;-143.85;100.00;70650.75;5096862;28;20035;-79
2021/12/13 09:15:46;;;;;;;0.20;0.20;;;;;;;-143.85;100.00;70650.75;5097872;28;20035;-79
2021/12/13 09:18:20;;;;;;;0.10;0.10;;;;;;;-143.85;100.00;70650.75;5115818;28;20020;-78
2021/12/13 09:20:53;;;;;;;0.45;0.45;;;;;;;-143.85;100.00;70650.75;5098419;28;20023;-81
2021/12/13 09:23:24;;;;;;;0.40;0.40;;;;;;;-143.85;100.00;70650.75;5098256;28;20387;-79
2021/12/13 09:26:11;;;;;;;0.68;0.68;;;;;;;-143.85;100.00;70650.75;5097660;28;20115;-78
2021/12/13 09:28:48;;;;;;;0.20;0.20;;;;;;;-143.85;100.00;70650.75;5097592;28;20564;-78
2021/12/13 09:31:25;;;;;;;0.17;0.17;;;;;;;-143.85;100.00;70650.75;5096786;28;20031;-81
2021/12/13 09:34:06;;;;;;;0.20;0.20;;;;;;;-143.85;100.00;70650.75;5097426;28;20023;-78
2021/12/13 09:36:39;;;;;;;0.22;0.22;;;;;;;-143.85;100.00;70650.75;5097000;28;20116;-78
2021/12/13 09:39:23;;;;;;;0.82;0.82;;;;;;;-143.85;100.00;70650.75;5113877;28;20045;-79
2021/12/13 09:42:04;;;;;;;1.77;0.85;;;;;;;-143.85;100.00;70650.75;5097175;28;20079;-81
2021/12/13 09:44:34;;;;;;;0.43;0.43;;;;;;;-143.85;100.00;70650.75;5096792;28;20023;-79
2021/12/13 09:47:05;;;;;;;0.57;0.57;;;;;;;-143.85;100.00;70650.75;5114904;28;20471;-79
2021/12/13 09:49:40;;;;;;;0.20;0.20;;;;;;;-143.85;100.00;70650.75;5096686;28;20055;-80
2021/12/13 09:52:29;;;;;;;0.77;0.63;;;;;;;-143.85;100.00;70650.75;5097024;28;20044;-82
2021/12/13 09:55:15;;;;;;;0.28;0.28;;;;;;;-143.85;100.00;70650.75;5095872;28;20040;-81
2021/12/13 09:57:43;;;;;;;0.20;0.20;;;;;;;-143.85;100.00;70650.75;5097150;28;20068;-79
2021/12/13 10:00:19;;;;;;;0.68;0.52;;;;;;;-143.85;100.00;70650.75;5096456;28;20435;-80
2021/12/13 10:02:51;;;;;;;0.38;0.38;;;;;;;-143.85;100.00;70650.75;5096615;28;20441;-79
2021/12/13 10:05:25;;;;;;;1.85;0.47;;;;;;;-143.85;100.00;70650.75;5096596;28;20081;-79
2021/12/13 10:07:57;;;;;;;0.45;0.45;;;;;;;-143.85;100.00;70650.75;5096274;28;20122;-81
2021/12/13 10:10:31;;;;;;;0.20;0.20;;;;;;;-143.85;100.00;70650.75;5114916;28;20098;-80
2021/12/13 10:13:04;;;;;;;0.38;0.38;;;;;;;-143.85;100.00;70650.75;5096251;28;20024;-78
2021/12/13 10:15:40;;;;;;;0.77;0.77;;;;;;;-143.85;100.00;70650.75;5096436;28;20034;-80
2021/12/13 10:18:13;;;;;;;0.20;0.20;;;;;;;-143.85;100.00;70650.75;5096476;28;20024;-78
2021/12/13 10:20:46;;;;;;;0.20;0.20;;;;;;;-143.85;100.00;70650.75;5096470;28;20027;-78
2021/12/13 10:23:18;;;;;;;0.30;0.30;;;;;;;-143.85;100.00;70650.75;5095908;28;20051;-79
2021/12/13 10:25:50;;;;;;;0.30;0.30;;;;;;;-143.85;100.00;70650.75;5115103;28;20035;-83
2021/12/13 10:28:20;;;;;;;0.68;0.68;;;;;;;-143.85;100.00;70650.75;5096084;28;20035;-77
2021/12/13 10:30:51;;;;;;;0.20;0.20;;;;;;;-143.85;100.00;70650.75;5095852;28;20024;-77
2021/12/13 10:33:20;;;;;;;0.45;0.45;;;;;;;-143.85;100.00;70650.75;5095801;28;20063;-77
2021/12/13 10:35:45;;;;;;;3.15;2.95;;;;;;;-143.85;100.00;70650.75;5095735;28;20546;-78
2021/12/13 10:38:20;;;;;;;7.18;1.77;;;;;;;-143.85;100.00;70650.75;5095725;28;20055;-78
2021/12/13 10:40:50;;;;;;;0.40;0.40;;;;;;;-143.85;100.00;70650.75;5096435;28;20114;-78
2021/12/13 10:43:24;;;;;;;0.20;0.20;;;;;;;-143.85;100.00;70650.75;5095321;28;20043;-78
2021/12/13 10:45:58;;;;;;;0.25;0.25;;;;;;;-143.85;100.00;70650.75;5095890;28;20072;-77
2021/12/13 10:48:30;;;;;;;0.43;0.43;;;;;;;-143.85;100.00;70650.75;5095504;28;20028;-77
2021/12/13 10:51:10;;;;;;;0.75;0.75;;;;;;;-143.85;100.00;70650.75;5095560;28;20118;-78
2021/12/13 10:53:37;;;;;;;1.08;1.08;;;;;;;-143.85;100.00;70650.75;5113640;28;20043;-78
2021/12/13 10:56:13;;;;;;;0.20;0.20;;;;;;;-143.85;100.00;70650.75;5095621;28;20080;-78
2021/12/13 10:58:43;;;;;;;0.20;0.20;;;;;;;-143.85;100.00;70650.75;5095851;28;20034;-77
2021/12/13 11:01:16;;;;;;;1.45;1.38;;;;;;;-143.85;100.00;70650.75;5095222;28;20023;-77
2021/12/13 11:03:42;;;;;;;0.20;0.20;;;;;;;-143.85;100.00;70650.75;5094975;28;20115;-77
2021/12/13 11:06:11;;;;;;;0.10;0.10;;;;;;;-143.85;100.00;70650.75;5094977;28;20063;-75
2021/12/13 11:08:41;;;;;;;0.35;0.35;;;;;;;-143.85;100.00;70650.75;5094923;28;20024;-76
2021/12/13 11:11:22;;;;;;;0.55;0.55;;;;;;;-143.85;100.00;70650.75;5094826;28;20571;-76
2021/12/13 11:13:52;;;;;;;1.05;1.05;;;;;;;-143.85;100.00;70650.75;5094379;28;20108;-78
2021/12/13 11:16:24;;;;;;;0.70;0.70;;;;;;;-143.85;100.00;70650.75;5095104;28;20027;-77
2021/12/13 11:18:50;;;;;;;2.30;2.10;;;;;;;-143.85;100.00;70650.75;5113108;28;20020;-77
2021/12/13 11:21:23;;;;;;;4.90;3.40;;;;;;;-143.85;100.00;70650.75;5094757;28;20122;-76
2021/12/13 11:23:49;;;;;;;11.07;9.40;;;;;;;-143.85;100.00;70650.75;5113038;28;20035;-77
2021/12/13 11:26:20;;;;;;;8.18;6.45;;;;;;;-143.85;100.00;70650.75;5094729;28;20061;-77
2021/12/13 11:28:47;;;;;;;3.15;2.50;;;;;;;-143.85;100.00;70650.75;5102952;27;20038;-77
2021/12/13 11:31:31;;;;;;;1.63;1.52;;;;;;;-143.85;100.00;70650.75;5113530;27;20080;-78
2021/12/13 11:34:03;;;;;;;0.20;0.20;;;;;;;-143.85;100.00;70650.75;5115090;27;20023;-75
2021/12/13 11:36:38;;;;;;;0.20;0.20;;;;;;;-143.85;100.00;70650.75;5114807;27;20035;-78
2021/12/13 11:39:40;;;;;;;0.75;0.75;;;;;;;-143.85;100.00;70650.75;5133569;27;20106;-77
2021/12/13 11:42:38;;;;;;;0.30;0.30;;;;;;;-143.85;100.00;70650.75;5104048;28;20076;-77
2021/12/13 11:45:27;;;;;;;0.20;0.20;;;;;;;-143.85;100.00;70650.75;5091220;28;20044;-77
2021/12/13 11:48:37;;;;;;;1.90;1.85;;;;;;;-143.85;100.00;70650.75;5091851;28;20035;-79
2021/12/13 11:51:14;;;;;;;2.78;2.58;;;;;;;-143.85;100.00;70650.75;4974518;28;20192;-79
2021/12/13 11:53:43;;;;;;;1.35;1.33;;;;;;;-143.85;100.00;70650.75;5076352;28;20035;-79
2021/12/13 11:56:36;;;;;;;1.65;1.55;;;;;;;-143.85;100.00;70650.75;5091204;28;20088;-78